sensor_id;sensor_type;location;lat;lon;timestamp;pressure;altitude;pressure_sealevel;temperature
68027;BMP180;54819;48.030;14.710;2023-02-28T00:01:32;98298.80;;;0.36
68027;BMP180;54819;48.030;14.710;2023-02-28T00:03:59;98302.40;;;0.30
68027;BMP180;54819;48.030;14.710;2023-02-28T00:06:27;98303.20;;;0.24
68027;BMP180;54819;48.030;14.710;2023-02-28T00:08:56;98304.40;;;0.20
68027;BMP180;54819;48.030;14.710;2023-02-28T00:11:23;98303.40;;;0.16
68027;BMP180;54819;48.030;14.710;2023-02-28T00:13:50;98306.40;;;0.10
68027;BMP180;54819;48.030;14.710;2023-02-28T00:16:20;98300.60;;;0.08
68027;BMP180;54819;48.030;14.710;2023-02-28T00:18:49;98305.00;;;0.00
68027;BMP180;54819;48.030;14.710;2023-02-28T00:21:18;98300.60;;;0.10
68027;BMP180;54819;48.030;14.710;2023-02-28T00:23:46;98304.00;;;0.00
68027;BMP180;54819;48.030;14.710;2023-02-28T00:26:13;98298.40;;;0.00
68027;BMP180;54819;48.030;14.710;2023-02-28T00:28:42;98298.60;;;-0.10
68027;BMP180;54819;48.030;14.710;2023-02-28T00:31:09;98296.60;;;0.00
68027;BMP180;54819;48.030;14.710;2023-02-28T00:33:36;98290.00;;;-0.10
68027;BMP180;54819;48.030;14.710;2023-02-28T00:36:09;98290.60;;;-0.10
68027;BMP180;54819;48.030;14.710;2023-02-28T00:38:38;98287.20;;;-0.20
68027;BMP180;54819;48.030;14.710;2023-02-28T00:41:05;98286.20;;;-0.20
68027;BMP180;54819;48.030;14.710;2023-02-28T00:43:34;98282.00;;;-0.20
68027;BMP180;54819;48.030;14.710;2023-02-28T00:46:03;98291.60;;;-0.26
68027;BMP180;54819;48.030;14.710;2023-02-28T00:48:31;98283.20;;;-0.30
68027;BMP180;54819;48.030;14.710;2023-02-28T00:50:58;98286.60;;;-0.30
68027;BMP180;54819;48.030;14.710;2023-02-28T00:53:25;98282.40;;;-0.36
68027;BMP180;54819;48.030;14.710;2023-02-28T00:55:52;98278.40;;;-0.40
68027;BMP180;54819;48.030;14.710;2023-02-28T00:58:20;98274.00;;;-0.40
68027;BMP180;54819;48.030;14.710;2023-02-28T01:00:47;98270.80;;;-0.40
68027;BMP180;54819;48.030;14.710;2023-02-28T01:03:19;98267.80;;;-0.40
68027;BMP180;54819;48.030;14.710;2023-02-28T01:05:47;98259.20;;;-0.40
68027;BMP180;54819;48.030;14.710;2023-02-28T01:08:16;98263.60;;;-0.50
68027;BMP180;54819;48.030;14.710;2023-02-28T01:10:43;98258.00;;;-0.50
68027;BMP180;54819;48.030;14.710;2023-02-28T01:13:11;98256.80;;;-0.50
68027;BMP180;54819;48.030;14.710;2023-02-28T01:15:42;98249.20;;;-0.58
68027;BMP180;54819;48.030;14.710;2023-02-28T01:18:11;98244.00;;;-0.52
68027;BMP180;54819;48.030;14.710;2023-02-28T01:20:38;98241.00;;;-0.60
68027;BMP180;54819;48.030;14.710;2023-02-28T01:23:05;98236.80;;;-0.50
68027;BMP180;54819;48.030;14.710;2023-02-28T01:25:36;98233.60;;;-0.60
68027;BMP180;54819;48.030;14.710;2023-02-28T01:28:05;98232.00;;;-0.60
68027;BMP180;54819;48.030;14.710;2023-02-28T01:30:35;98234.00;;;-0.60
68027;BMP180;54819;48.030;14.710;2023-02-28T01:33:02;98229.40;;;-0.60
68027;BMP180;54819;48.030;14.710;2023-02-28T01:35:33;98231.80;;;-0.64
68027;BMP180;54819;48.030;14.710;2023-02-28T01:38:01;98232.80;;;-0.70
68027;BMP180;54819;48.030;14.710;2023-02-28T01:40:46;98233.60;;;-0.68
68027;BMP180;54819;48.030;14.710;2023-02-28T01:45:48;98220.00;;;-0.70
68027;BMP180;54819;48.030;14.710;2023-02-28T01:48:15;98216.00;;;-0.70
68027;BMP180;54819;48.030;14.710;2023-02-28T01:50:46;98215.80;;;-0.70
68027;BMP180;54819;48.030;14.710;2023-02-28T01:53:18;98213.80;;;-0.70
68027;BMP180;54819;48.030;14.710;2023-02-28T01:55:49;98208.20;;;-0.70
68027;BMP180;54819;48.030;14.710;2023-02-28T01:58:19;98206.80;;;-0.80
68027;BMP180;54819;48.030;14.710;2023-02-28T02:00:46;98205.60;;;-0.80
68027;BMP180;54819;48.030;14.710;2023-02-28T02:03:16;98208.00;;;-0.80
68027;BMP180;54819;48.030;14.710;2023-02-28T02:05:47;98205.80;;;-0.80
68027;BMP180;54819;48.030;14.710;2023-02-28T02:08:21;98202.00;;;-0.82
68027;BMP180;54819;48.030;14.710;2023-02-28T02:10:58;98203.60;;;-0.80
68027;BMP180;54819;48.030;14.710;2023-02-28T02:13:53;98196.80;;;-0.80
68027;BMP180;54819;48.030;14.710;2023-02-28T02:30:40;98177.20;;;-0.80
68027;BMP180;54819;48.030;14.710;2023-02-28T02:36:30;98176.40;;;-0.86
68027;BMP180;54819;48.030;14.710;2023-02-28T02:42:11;98176.80;;;-0.80
68027;BMP180;54819;48.030;14.710;2023-02-28T02:44:47;98171.40;;;-0.90
68027;BMP180;54819;48.030;14.710;2023-02-28T02:47:20;98178.60;;;-0.88
68027;BMP180;54819;48.030;14.710;2023-02-28T02:49:55;98178.60;;;-0.86
68027;BMP180;54819;48.030;14.710;2023-02-28T02:52:31;98176.80;;;-0.90
68027;BMP180;54819;48.030;14.710;2023-02-28T02:55:00;98178.60;;;-0.90
68027;BMP180;54819;48.030;14.710;2023-02-28T02:57:59;98179.40;;;-0.90
68027;BMP180;54819;48.030;14.710;2023-02-28T03:00:38;98170.80;;;-0.90
68027;BMP180;54819;48.030;14.710;2023-02-28T03:03:11;98173.60;;;-0.90
68027;BMP180;54819;48.030;14.710;2023-02-28T03:05:46;98172.40;;;-0.90
68027;BMP180;54819;48.030;14.710;2023-02-28T03:08:13;98172.80;;;-0.96
68027;BMP180;54819;48.030;14.710;2023-02-28T03:10:48;98173.20;;;-1.00
68027;BMP180;54819;48.030;14.710;2023-02-28T03:16:31;98176.80;;;-0.96
68027;BMP180;54819;48.030;14.710;2023-02-28T03:30:45;98171.60;;;-1.00
68027;BMP180;54819;48.030;14.710;2023-02-28T03:33:45;98169.40;;;-1.06
68027;BMP180;54819;48.030;14.710;2023-02-28T03:36:19;98159.20;;;-1.00
68027;BMP180;54819;48.030;14.710;2023-02-28T03:39:03;98161.80;;;-1.00
68027;BMP180;54819;48.030;14.710;2023-02-28T03:41:36;98169.20;;;-1.10
68027;BMP180;54819;48.030;14.710;2023-02-28T03:44:18;98170.40;;;-1.10
68027;BMP180;54819;48.030;14.710;2023-02-28T03:47:03;98168.60;;;-1.10
68027;BMP180;54819;48.030;14.710;2023-02-28T03:49:36;98168.80;;;-1.12
68027;BMP180;54819;48.030;14.710;2023-02-28T03:52:08;98168.40;;;-1.20
68027;BMP180;54819;48.030;14.710;2023-02-28T03:54:44;98170.20;;;-1.18
68027;BMP180;54819;48.030;14.710;2023-02-28T03:57:20;98167.00;;;-1.20
68027;BMP180;54819;48.030;14.710;2023-02-28T03:59:56;98165.20;;;-1.28
68027;BMP180;54819;48.030;14.710;2023-02-28T04:02:27;98163.20;;;-1.30
68027;BMP180;54819;48.030;14.710;2023-02-28T04:04:54;98166.60;;;-1.30
68027;BMP180;54819;48.030;14.710;2023-02-28T04:07:21;98165.80;;;-1.30
68027;BMP180;54819;48.030;14.710;2023-02-28T04:09:48;98170.00;;;-1.38
68027;BMP180;54819;48.030;14.710;2023-02-28T04:12:15;98168.40;;;-1.40
68027;BMP180;54819;48.030;14.710;2023-02-28T04:14:42;98165.40;;;-1.38
68027;BMP180;54819;48.030;14.710;2023-02-28T04:17:11;98166.40;;;-1.40
68027;BMP180;54819;48.030;14.710;2023-02-28T04:19:39;98166.00;;;-1.40
68027;BMP180;54819;48.030;14.710;2023-02-28T04:22:07;98171.40;;;-1.40
68027;BMP180;54819;48.030;14.710;2023-02-28T04:24:34;98166.80;;;-1.40
68027;BMP180;54819;48.030;14.710;2023-02-28T04:27:02;98165.20;;;-1.40
68027;BMP180;54819;48.030;14.710;2023-02-28T04:29:32;98167.00;;;-1.40
68027;BMP180;54819;48.030;14.710;2023-02-28T04:31:59;98169.60;;;-1.44
68027;BMP180;54819;48.030;14.710;2023-02-28T04:34:29;98167.00;;;-1.50
68027;BMP180;54819;48.030;14.710;2023-02-28T04:36:57;98162.40;;;-1.50
68027;BMP180;54819;48.030;14.710;2023-02-28T04:39:41;98156.80;;;-1.50
68027;BMP180;54819;48.030;14.710;2023-02-28T04:42:09;98158.80;;;-1.50
68027;BMP180;54819;48.030;14.710;2023-02-28T04:44:36;98167.20;;;-1.50
68027;BMP180;54819;48.030;14.710;2023-02-28T04:47:03;98171.60;;;-1.50
68027;BMP180;54819;48.030;14.710;2023-02-28T04:49:30;98166.60;;;-1.60
68027;BMP180;54819;48.030;14.710;2023-02-28T04:51:58;98166.60;;;-1.60
68027;BMP180;54819;48.030;14.710;2023-02-28T04:54:25;98169.60;;;-1.60
68027;BMP180;54819;48.030;14.710;2023-02-28T04:56:51;98165.60;;;-1.60
68027;BMP180;54819;48.030;14.710;2023-02-28T04:59:19;98164.60;;;-1.70
68027;BMP180;54819;48.030;14.710;2023-02-28T05:01:47;98170.40;;;-1.70
68027;BMP180;54819;48.030;14.710;2023-02-28T05:04:16;98171.80;;;-1.72
68027;BMP180;54819;48.030;14.710;2023-02-28T05:06:44;98171.40;;;-1.70
68027;BMP180;54819;48.030;14.710;2023-02-28T05:09:11;98173.80;;;-1.72
68027;BMP180;54819;48.030;14.710;2023-02-28T05:11:39;98174.00;;;-1.78
68027;BMP180;54819;48.030;14.710;2023-02-28T05:14:10;98172.00;;;-1.80
68027;BMP180;54819;48.030;14.710;2023-02-28T05:16:38;98177.00;;;-1.80
68027;BMP180;54819;48.030;14.710;2023-02-28T05:19:06;98177.20;;;-1.80
68027;BMP180;54819;48.030;14.710;2023-02-28T05:24:06;98178.20;;;-1.80
68027;BMP180;54819;48.030;14.710;2023-02-28T05:26:42;98178.80;;;-1.80
68027;BMP180;54819;48.030;14.710;2023-02-28T05:29:10;98171.00;;;-1.80
68027;BMP180;54819;48.030;14.710;2023-02-28T05:31:37;98176.80;;;-1.80
68027;BMP180;54819;48.030;14.710;2023-02-28T05:34:04;98182.20;;;-1.80
68027;BMP180;54819;48.030;14.710;2023-02-28T05:36:32;98177.80;;;-1.80
68027;BMP180;54819;48.030;14.710;2023-02-28T05:38:59;98178.20;;;-1.80
68027;BMP180;54819;48.030;14.710;2023-02-28T05:41:26;98179.00;;;-1.80
68027;BMP180;54819;48.030;14.710;2023-02-28T05:43:54;98183.80;;;-1.86
68027;BMP180;54819;48.030;14.710;2023-02-28T05:46:21;98186.80;;;-1.80
68027;BMP180;54819;48.030;14.710;2023-02-28T05:48:48;98185.40;;;-1.80
68027;BMP180;54819;48.030;14.710;2023-02-28T05:51:18;98182.20;;;-1.86
68027;BMP180;54819;48.030;14.710;2023-02-28T05:53:45;98187.40;;;-1.80
68027;BMP180;54819;48.030;14.710;2023-02-28T05:56:12;98190.60;;;-1.80
68027;BMP180;54819;48.030;14.710;2023-02-28T05:58:38;98182.20;;;-1.80
68027;BMP180;54819;48.030;14.710;2023-02-28T06:01:31;98189.80;;;-1.90
68027;BMP180;54819;48.030;14.710;2023-02-28T06:04:00;98192.00;;;-1.80
68027;BMP180;54819;48.030;14.710;2023-02-28T06:06:28;98190.40;;;-1.80
68027;BMP180;54819;48.030;14.710;2023-02-28T06:08:56;98191.80;;;-1.72
68027;BMP180;54819;48.030;14.710;2023-02-28T06:11:23;98193.40;;;-1.76
68027;BMP180;54819;48.030;14.710;2023-02-28T06:13:56;98190.60;;;-1.70
68027;BMP180;54819;48.030;14.710;2023-02-28T06:16:24;98190.60;;;-1.70
68027;BMP180;54819;48.030;14.710;2023-02-28T06:18:51;98190.80;;;-1.70
68027;BMP180;54819;48.030;14.710;2023-02-28T06:21:19;98200.60;;;-1.70
68027;BMP180;54819;48.030;14.710;2023-02-28T06:23:46;98196.80;;;-1.60
68027;BMP180;54819;48.030;14.710;2023-02-28T06:26:13;98193.60;;;-1.60
68027;BMP180;54819;48.030;14.710;2023-02-28T06:28:40;98195.80;;;-1.60
68027;BMP180;54819;48.030;14.710;2023-02-28T06:31:12;98195.80;;;-1.50
68027;BMP180;54819;48.030;14.710;2023-02-28T06:33:41;98188.00;;;-1.50
68027;BMP180;54819;48.030;14.710;2023-02-28T06:36:10;98187.00;;;-1.50
68027;BMP180;54819;48.030;14.710;2023-02-28T06:38:40;98188.40;;;-1.50
68027;BMP180;54819;48.030;14.710;2023-02-28T06:41:08;98190.40;;;-1.40
68027;BMP180;54819;48.030;14.710;2023-02-28T06:43:39;98185.60;;;-1.40
68027;BMP180;54819;48.030;14.710;2023-02-28T06:46:08;98193.20;;;-1.38
68027;BMP180;54819;48.030;14.710;2023-02-28T06:48:37;98196.20;;;-1.30
68027;BMP180;54819;48.030;14.710;2023-02-28T06:51:08;98198.60;;;-1.30
68027;BMP180;54819;48.030;14.710;2023-02-28T06:53:36;98206.20;;;-1.30
68027;BMP180;54819;48.030;14.710;2023-02-28T06:56:04;98203.60;;;-1.20
68027;BMP180;54819;48.030;14.710;2023-02-28T06:58:33;98209.60;;;-1.20
68027;BMP180;54819;48.030;14.710;2023-02-28T07:01:01;98208.60;;;-1.14
68027;BMP180;54819;48.030;14.710;2023-02-28T07:03:29;98201.00;;;-1.10
68027;BMP180;54819;48.030;14.710;2023-02-28T07:06:00;98204.40;;;-1.04
68027;BMP180;54819;48.030;14.710;2023-02-28T07:08:30;98206.80;;;-0.92
68027;BMP180;54819;48.030;14.710;2023-02-28T07:10:58;98200.20;;;-0.98
68027;BMP180;54819;48.030;14.710;2023-02-28T07:13:26;98199.60;;;-0.90
68027;BMP180;54819;48.030;14.710;2023-02-28T07:15:55;98202.80;;;-0.80
68027;BMP180;54819;48.030;14.710;2023-02-28T07:18:22;98195.80;;;-0.80
68027;BMP180;54819;48.030;14.710;2023-02-28T07:20:50;98200.00;;;-0.76
68027;BMP180;54819;48.030;14.710;2023-02-28T07:23:17;98202.80;;;-0.70
68027;BMP180;54819;48.030;14.710;2023-02-28T07:25:45;98201.20;;;-0.70
68027;BMP180;54819;48.030;14.710;2023-02-28T07:28:13;98203.60;;;-0.60
68027;BMP180;54819;48.030;14.710;2023-02-28T07:30:41;98203.80;;;-0.60
68027;BMP180;54819;48.030;14.710;2023-02-28T07:33:09;98200.40;;;-0.54
68027;BMP180;54819;48.030;14.710;2023-02-28T07:35:37;98205.40;;;-0.50
68027;BMP180;54819;48.030;14.710;2023-02-28T07:38:04;98194.60;;;-0.40
68027;BMP180;54819;48.030;14.710;2023-02-28T07:40:34;98201.20;;;-0.40
68027;BMP180;54819;48.030;14.710;2023-02-28T07:43:03;98197.60;;;-0.40
68027;BMP180;54819;48.030;14.710;2023-02-28T07:45:31;98207.20;;;-0.34
68027;BMP180;54819;48.030;14.710;2023-02-28T07:48:02;98207.00;;;-0.30
68027;BMP180;54819;48.030;14.710;2023-02-28T07:50:29;98209.20;;;-0.30
68027;BMP180;54819;48.030;14.710;2023-02-28T07:52:58;98207.80;;;-0.20
68027;BMP180;54819;48.030;14.710;2023-02-28T07:55:26;98207.40;;;-0.20
68027;BMP180;54819;48.030;14.710;2023-02-28T07:57:57;98207.20;;;-0.10
68027;BMP180;54819;48.030;14.710;2023-02-28T08:00:24;98205.80;;;0.00
68027;BMP180;54819;48.030;14.710;2023-02-28T08:02:52;98204.40;;;0.10
68027;BMP180;54819;48.030;14.710;2023-02-28T08:05:19;98203.20;;;0.20
68027;BMP180;54819;48.030;14.710;2023-02-28T08:07:49;98207.20;;;0.18
68027;BMP180;54819;48.030;14.710;2023-02-28T08:10:17;98212.00;;;0.20
68027;BMP180;54819;48.030;14.710;2023-02-28T08:12:44;98211.60;;;0.20
68027;BMP180;54819;48.030;14.710;2023-02-28T08:15:11;98211.20;;;0.30
68027;BMP180;54819;48.030;14.710;2023-02-28T08:17:41;98210.00;;;0.30
68027;BMP180;54819;48.030;14.710;2023-02-28T08:20:09;98211.00;;;0.40
68027;BMP180;54819;48.030;14.710;2023-02-28T08:22:37;98213.40;;;0.40
68027;BMP180;54819;48.030;14.710;2023-02-28T08:25:04;98219.20;;;0.40
68027;BMP180;54819;48.030;14.710;2023-02-28T08:27:34;98218.40;;;0.50
68027;BMP180;54819;48.030;14.710;2023-02-28T08:30:02;98218.40;;;0.50
68027;BMP180;54819;48.030;14.710;2023-02-28T08:32:32;98213.60;;;0.60
68027;BMP180;54819;48.030;14.710;2023-02-28T08:35:00;98217.80;;;0.60
68027;BMP180;54819;48.030;14.710;2023-02-28T08:37:27;98217.40;;;0.70
68027;BMP180;54819;48.030;14.710;2023-02-28T08:39:54;98221.60;;;0.68
68027;BMP180;54819;48.030;14.710;2023-02-28T08:42:23;98226.00;;;0.70
68027;BMP180;54819;48.030;14.710;2023-02-28T08:44:50;98224.60;;;0.80
68027;BMP180;54819;48.030;14.710;2023-02-28T08:47:18;98220.00;;;0.90
68027;BMP180;54819;48.030;14.710;2023-02-28T08:49:45;98221.60;;;0.90
68027;BMP180;54819;48.030;14.710;2023-02-28T08:52:13;98223.00;;;0.94
68027;BMP180;54819;48.030;14.710;2023-02-28T08:54:40;98221.60;;;1.00
68027;BMP180;54819;48.030;14.710;2023-02-28T08:57:07;98219.80;;;1.08
68027;BMP180;54819;48.030;14.710;2023-02-28T08:59:35;98225.80;;;1.10
68027;BMP180;54819;48.030;14.710;2023-02-28T09:02:02;98228.60;;;1.20
68027;BMP180;54819;48.030;14.710;2023-02-28T09:04:29;98232.60;;;1.20
68027;BMP180;54819;48.030;14.710;2023-02-28T09:06:57;98238.80;;;1.30
68027;BMP180;54819;48.030;14.710;2023-02-28T09:09:24;98232.40;;;1.30
68027;BMP180;54819;48.030;14.710;2023-02-28T09:11:52;98236.20;;;1.30
68027;BMP180;54819;48.030;14.710;2023-02-28T09:14:19;98245.00;;;1.30
68027;BMP180;54819;48.030;14.710;2023-02-28T09:16:46;98244.00;;;1.40
68027;BMP180;54819;48.030;14.710;2023-02-28T09:19:13;98242.20;;;1.42
68027;BMP180;54819;48.030;14.710;2023-02-28T09:21:41;98243.60;;;1.50
68027;BMP180;54819;48.030;14.710;2023-02-28T09:24:08;98246.60;;;1.58
68027;BMP180;54819;48.030;14.710;2023-02-28T09:26:35;98250.00;;;1.60
68027;BMP180;54819;48.030;14.710;2023-02-28T09:29:13;98246.80;;;1.70
68027;BMP180;54819;48.030;14.710;2023-02-28T09:31:41;98245.60;;;1.80
68027;BMP180;54819;48.030;14.710;2023-02-28T09:34:08;98241.40;;;1.90
68027;BMP180;54819;48.030;14.710;2023-02-28T09:36:35;98240.60;;;1.90
68027;BMP180;54819;48.030;14.710;2023-02-28T09:39:12;98242.60;;;2.00
68027;BMP180;54819;48.030;14.710;2023-02-28T09:41:44;98246.80;;;2.10
68027;BMP180;54819;48.030;14.710;2023-02-28T09:47:01;98243.60;;;2.20
68027;BMP180;54819;48.030;14.710;2023-02-28T09:49:38;98240.00;;;2.30
68027;BMP180;54819;48.030;14.710;2023-02-28T09:52:14;98242.60;;;2.40
68027;BMP180;54819;48.030;14.710;2023-02-28T09:54:43;98249.20;;;2.50
68027;BMP180;54819;48.030;14.710;2023-02-28T09:57:37;98243.20;;;2.50
68027;BMP180;54819;48.030;14.710;2023-02-28T10:00:19;98251.20;;;2.60
68027;BMP180;54819;48.030;14.710;2023-02-28T10:03:00;98253.60;;;2.70
68027;BMP180;54819;48.030;14.710;2023-02-28T10:08:37;98254.40;;;2.84
68027;BMP180;54819;48.030;14.710;2023-02-28T10:11:12;98256.00;;;3.00
68027;BMP180;54819;48.030;14.710;2023-02-28T10:19:26;98267.80;;;3.10
68027;BMP180;54819;48.030;14.710;2023-02-28T10:22:03;98261.80;;;3.10
68027;BMP180;54819;48.030;14.710;2023-02-28T10:24:41;98260.00;;;3.12
68027;BMP180;54819;48.030;14.710;2023-02-28T10:27:24;98262.00;;;3.24
68027;BMP180;54819;48.030;14.710;2023-02-28T10:29:54;98259.40;;;3.30
68027;BMP180;54819;48.030;14.710;2023-02-28T10:32:32;98260.40;;;3.40
68027;BMP180;54819;48.030;14.710;2023-02-28T10:35:10;98254.40;;;3.42
68027;BMP180;54819;48.030;14.710;2023-02-28T10:37:44;98253.40;;;3.48
68027;BMP180;54819;48.030;14.710;2023-02-28T10:40:32;98247.80;;;3.46
68027;BMP180;54819;48.030;14.710;2023-02-28T10:43:19;98253.20;;;3.50
68027;BMP180;54819;48.030;14.710;2023-02-28T10:46:01;98254.40;;;3.50
68027;BMP180;54819;48.030;14.710;2023-02-28T10:49:05;98251.80;;;3.50
68027;BMP180;54819;48.030;14.710;2023-02-28T10:51:40;98252.80;;;3.62
68027;BMP180;54819;48.030;14.710;2023-02-28T10:54:20;98251.80;;;3.76
68027;BMP180;54819;48.030;14.710;2023-02-28T10:59:40;98242.00;;;3.84
68027;BMP180;54819;48.030;14.710;2023-02-28T11:02:34;98241.00;;;3.96
68027;BMP180;54819;48.030;14.710;2023-02-28T11:05:24;98240.20;;;4.00
68027;BMP180;54819;48.030;14.710;2023-02-28T11:08:15;98236.20;;;4.10
68027;BMP180;54819;48.030;14.710;2023-02-28T11:11:04;98230.20;;;4.30
68027;BMP180;54819;48.030;14.710;2023-02-28T11:13:37;98229.80;;;4.40
68027;BMP180;54819;48.030;14.710;2023-02-28T11:16:10;98224.60;;;4.48
68027;BMP180;54819;48.030;14.710;2023-02-28T11:18:48;98226.40;;;4.54
68027;BMP180;54819;48.030;14.710;2023-02-28T11:21:22;98227.80;;;4.62
68027;BMP180;54819;48.030;14.710;2023-02-28T11:23:57;98219.60;;;4.68
68027;BMP180;54819;48.030;14.710;2023-02-28T11:26:43;98228.40;;;4.70
68027;BMP180;54819;48.030;14.710;2023-02-28T11:29:27;98223.80;;;4.70
68027;BMP180;54819;48.030;14.710;2023-02-28T11:32:19;98222.00;;;4.80
68027;BMP180;54819;48.030;14.710;2023-02-28T11:35:04;98214.80;;;4.80
68027;BMP180;54819;48.030;14.710;2023-02-28T11:37:39;98214.40;;;4.90
68027;BMP180;54819;48.030;14.710;2023-02-28T11:40:18;98218.00;;;5.00
68027;BMP180;54819;48.030;14.710;2023-02-28T11:43:18;98221.00;;;5.10
68027;BMP180;54819;48.030;14.710;2023-02-28T11:46:11;98225.60;;;5.18
68027;BMP180;54819;48.030;14.710;2023-02-28T11:51:34;98216.60;;;5.30
68027;BMP180;54819;48.030;14.710;2023-02-28T11:54:31;98215.80;;;5.38
68027;BMP180;54819;48.030;14.710;2023-02-28T12:03:42;98200.20;;;5.50
68027;BMP180;54819;48.030;14.710;2023-02-28T12:08:59;98211.00;;;5.40
68027;BMP180;54819;48.030;14.710;2023-02-28T12:14:46;98208.80;;;5.48
68027;BMP180;54819;48.030;14.710;2023-02-28T12:25:39;98198.40;;;5.64
68027;BMP180;54819;48.030;14.710;2023-02-28T12:28:16;98198.80;;;5.62
68027;BMP180;54819;48.030;14.710;2023-02-28T12:31:09;98200.60;;;5.70
68027;BMP180;54819;48.030;14.710;2023-02-28T12:33:51;98194.00;;;5.70
68027;BMP180;54819;48.030;14.710;2023-02-28T12:36:19;98196.60;;;5.70
68027;BMP180;54819;48.030;14.710;2023-02-28T12:38:56;98197.00;;;5.70
68027;BMP180;54819;48.030;14.710;2023-02-28T12:44:20;98188.20;;;5.80
68027;BMP180;54819;48.030;14.710;2023-02-28T12:46:52;98189.00;;;5.80
68027;BMP180;54819;48.030;14.710;2023-02-28T12:49:46;98187.40;;;5.90
68027;BMP180;54819;48.030;14.710;2023-02-28T12:52:23;98194.00;;;6.00
68027;BMP180;54819;48.030;14.710;2023-02-28T12:55:25;98195.60;;;6.10
68027;BMP180;54819;48.030;14.710;2023-02-28T12:58:03;98193.60;;;6.14
68027;BMP180;54819;48.030;14.710;2023-02-28T13:00:35;98197.80;;;6.20
68027;BMP180;54819;48.030;14.710;2023-02-28T13:09:05;98191.00;;;6.14
68027;BMP180;54819;48.030;14.710;2023-02-28T13:11:44;98188.20;;;6.02
68027;BMP180;54819;48.030;14.710;2023-02-28T13:17:09;98186.00;;;6.10
68027;BMP180;54819;48.030;14.710;2023-02-28T13:19:46;98179.40;;;6.14
68027;BMP180;54819;48.030;14.710;2023-02-28T13:22:35;98179.60;;;6.14
68027;BMP180;54819;48.030;14.710;2023-02-28T13:28:02;98175.60;;;6.20
68027;BMP180;54819;48.030;14.710;2023-02-28T13:33:36;98166.40;;;6.26
68027;BMP180;54819;48.030;14.710;2023-02-28T13:36:41;98169.20;;;6.30
68027;BMP180;54819;48.030;14.710;2023-02-28T13:39:49;98172.80;;;6.30
68027;BMP180;54819;48.030;14.710;2023-02-28T14:04:18;98182.00;;;6.10
68027;BMP180;54819;48.030;14.710;2023-02-28T14:06:55;98185.00;;;6.00
68027;BMP180;54819;48.030;14.710;2023-02-28T14:09:24;98188.20;;;6.02
68027;BMP180;54819;48.030;14.710;2023-02-28T14:11:53;98188.20;;;6.10
68027;BMP180;54819;48.030;14.710;2023-02-28T14:17:05;98187.80;;;5.94
68027;BMP180;54819;48.030;14.710;2023-02-28T14:19:35;98190.60;;;5.90
68027;BMP180;54819;48.030;14.710;2023-02-28T14:25:17;98187.60;;;5.80
68027;BMP180;54819;48.030;14.710;2023-02-28T14:27:57;98181.60;;;5.78
68027;BMP180;54819;48.030;14.710;2023-02-28T14:41:40;98182.40;;;6.20
68027;BMP180;54819;48.030;14.710;2023-02-28T14:44:22;98174.80;;;6.10
68027;BMP180;54819;48.030;14.710;2023-02-28T14:46:55;98183.00;;;6.10
68027;BMP180;54819;48.030;14.710;2023-02-28T14:49:30;98190.40;;;6.20
68027;BMP180;54819;48.030;14.710;2023-02-28T14:52:25;98189.00;;;6.20
68027;BMP180;54819;48.030;14.710;2023-02-28T14:54:56;98190.00;;;6.20
68027;BMP180;54819;48.030;14.710;2023-02-28T14:57:28;98191.00;;;6.24
68027;BMP180;54819;48.030;14.710;2023-02-28T15:02:29;98197.60;;;6.26
68027;BMP180;54819;48.030;14.710;2023-02-28T15:05:00;98196.00;;;6.20
68027;BMP180;54819;48.030;14.710;2023-02-28T15:07:28;98191.80;;;6.12
68027;BMP180;54819;48.030;14.710;2023-02-28T15:10:18;98197.20;;;6.10
68027;BMP180;54819;48.030;14.710;2023-02-28T15:21:13;98207.20;;;6.10
68027;BMP180;54819;48.030;14.710;2023-02-28T15:23:48;98213.00;;;6.08
68027;BMP180;54819;48.030;14.710;2023-02-28T15:26:20;98217.80;;;6.08
68027;BMP180;54819;48.030;14.710;2023-02-28T15:28:57;98212.00;;;6.00
68027;BMP180;54819;48.030;14.710;2023-02-28T15:31:32;98215.00;;;5.90
68027;BMP180;54819;48.030;14.710;2023-02-28T15:34:39;98218.60;;;5.80
68027;BMP180;54819;48.030;14.710;2023-02-28T15:37:26;98212.40;;;5.80
68027;BMP180;54819;48.030;14.710;2023-02-28T15:39:56;98217.60;;;5.70
68027;BMP180;54819;48.030;14.710;2023-02-28T15:42:28;98224.40;;;5.70
68027;BMP180;54819;48.030;14.710;2023-02-28T15:44:55;98226.40;;;5.60
68027;BMP180;54819;48.030;14.710;2023-02-28T15:47:26;98226.40;;;5.60
68027;BMP180;54819;48.030;14.710;2023-02-28T15:49:56;98231.00;;;5.60
68027;BMP180;54819;48.030;14.710;2023-02-28T15:52:50;98228.80;;;5.58
68027;BMP180;54819;48.030;14.710;2023-02-28T15:55:23;98236.20;;;5.50
68027;BMP180;54819;48.030;14.710;2023-02-28T15:57:53;98235.40;;;5.50
68027;BMP180;54819;48.030;14.710;2023-02-28T16:00:26;98234.60;;;5.40
68027;BMP180;54819;48.030;14.710;2023-02-28T16:02:59;98236.80;;;5.40
68027;BMP180;54819;48.030;14.710;2023-02-28T16:05:29;98232.00;;;5.40
68027;BMP180;54819;48.030;14.710;2023-02-28T16:08:14;98231.20;;;5.30
68027;BMP180;54819;48.030;14.710;2023-02-28T16:10:44;98230.00;;;5.30
68027;BMP180;54819;48.030;14.710;2023-02-28T16:13:19;98231.20;;;5.20
68027;BMP180;54819;48.030;14.710;2023-02-28T16:15:53;98232.60;;;5.12
68027;BMP180;54819;48.030;14.710;2023-02-28T16:18:26;98238.40;;;5.10
68027;BMP180;54819;48.030;14.710;2023-02-28T16:20:56;98241.00;;;5.06
68027;BMP180;54819;48.030;14.710;2023-02-28T16:23:28;98244.60;;;5.00
68027;BMP180;54819;48.030;14.710;2023-02-28T16:25:58;98241.00;;;5.00
68027;BMP180;54819;48.030;14.710;2023-02-28T16:28:34;98245.60;;;4.90
68027;BMP180;54819;48.030;14.710;2023-02-28T16:31:05;98247.20;;;4.80
68027;BMP180;54819;48.030;14.710;2023-02-28T16:33:36;98244.80;;;4.80
68027;BMP180;54819;48.030;14.710;2023-02-28T16:36:22;98252.60;;;4.70
68027;BMP180;54819;48.030;14.710;2023-02-28T16:38:56;98252.80;;;4.70
68027;BMP180;54819;48.030;14.710;2023-02-28T16:41:28;98256.40;;;4.70
68027;BMP180;54819;48.030;14.710;2023-02-28T16:43:58;98256.60;;;4.60
68027;BMP180;54819;48.030;14.710;2023-02-28T16:46:38;98262.80;;;4.60
68027;BMP180;54819;48.030;14.710;2023-02-28T16:49:11;98261.80;;;4.54
68027;BMP180;54819;48.030;14.710;2023-02-28T16:51:39;98267.40;;;4.50
68027;BMP180;54819;48.030;14.710;2023-02-28T16:54:06;98263.80;;;4.42
68027;BMP180;54819;48.030;14.710;2023-02-28T16:56:34;98262.40;;;4.40
68027;BMP180;54819;48.030;14.710;2023-02-28T16:59:02;98266.40;;;4.40
68027;BMP180;54819;48.030;14.710;2023-02-28T17:01:29;98265.40;;;4.30